Time;durP1;ratioP1;P1;durP2;ratioP2;P2;SDS_P1;SDS_P2;PMS_P1;PMS_P2;Temp;Humidity;BMP_temperature;BMP_pressure;BME280_temperature;BME280_humidity;BME280_pressure;Samples;Min_cycle;Max_cycle;Signal;HPM_P1;HPM_P2
2023/12/12 00:02:06;;;;;;;2.67;2.17;;;19.30;60.10;;;;;;4977617;28;20197;-73
2023/12/12 00:04:32;;;;;;;3.13;2.30;;;19.30;60.10;;;;;;4977345;28;20188;-73
2023/12/12 00:06:57;;;;;;;2.97;2.00;;;19.30;60.10;;;;;;4980645;28;20185;-72
2023/12/12 00:09:23;;;;;;;2.00;1.70;;;19.30;60.10;;;;;;5001194;28;20189;-72
2023/12/12 00:11:49;;;;;;;2.15;1.95;;;19.30;60.10;;;;;;4986213;28;20208;-72
2023/12/12 00:14:15;;;;;;;2.22;2.03;;;19.30;60.10;;;;;;5001106;28;20195;-71
2023/12/12 00:16:40;;;;;;;2.30;2.10;;;19.30;60.10;;;;;;5000415;28;20184;-72
2023/12/12 00:19:06;;;;;;;2.17;1.95;;;19.30;60.10;;;;;;4985254;28;20198;-72
2023/12/12 00:21:32;;;;;;;1.65;1.52;;;19.30;60.10;;;;;;4976997;28;20209;-72
2023/12/12 00:23:57;;;;;;;2.22;1.90;;;19.30;60.10;;;;;;4977381;28;20190;-72
2023/12/12 00:26:23;;;;;;;2.67;2.20;;;19.30;60.10;;;;;;5000002;28;20235;-72
2023/12/12 00:28:49;;;;;;;2.67;2.20;;;19.30;60.10;;;;;;4985998;28;20195;-72
2023/12/12 00:31:15;;;;;;;2.47;2.03;;;19.30;60.10;;;;;;5000467;28;20230;-72
2023/12/12 00:33:40;;;;;;;2.35;1.80;;;19.30;60.10;;;;;;4979010;28;20189;-73
2023/12/12 00:36:07;;;;;;;2.70;2.20;;;19.30;60.10;;;;;;4981632;28;20189;-71
2023/12/12 00:38:32;;;;;;;2.05;1.83;;;19.30;60.10;;;;;;4995987;28;20275;-72
2023/12/12 00:40:58;;;;;;;2.05;1.85;;;19.30;60.10;;;;;;4982725;28;20237;-72
2023/12/12 00:43:24;;;;;;;2.15;1.90;;;19.30;60.10;;;;;;4984840;28;20280;-72
2023/12/12 00:45:51;;;;;;;2.30;2.10;;;19.30;60.10;;;;;;4982102;28;20192;-72
2023/12/12 00:48:17;;;;;;;2.25;1.83;;;19.30;60.10;;;;;;4980138;28;20740;-73
2023/12/12 00:50:44;;;;;;;1.92;1.80;;;19.30;60.10;;;;;;4983137;28;20235;-72
2023/12/12 00:53:10;;;;;;;2.03;1.58;;;19.30;60.10;;;;;;4987337;28;20185;-72
2023/12/12 00:55:35;;;;;;;2.08;1.88;;;19.30;60.10;;;;;;4974611;28;20190;-73
2023/12/12 00:58:01;;;;;;;2.28;2.03;;;19.30;60.10;;;;;;4979198;28;20244;-72
2023/12/12 01:00:27;;;;;;;2.60;2.10;;;19.30;60.10;;;;;;4975585;28;20208;-72
2023/12/12 01:02:52;;;;;;;2.00;1.80;;;19.30;60.10;;;;;;4993052;28;20556;-72
2023/12/12 01:05:18;;;;;;;2.30;2.00;;;19.30;60.10;;;;;;4974121;28;20189;-72
2023/12/12 01:07:44;;;;;;;1.75;1.65;;;19.30;60.10;;;;;;4989534;28;20197;-71
2023/12/12 01:10:10;;;;;;;2.53;1.75;;;19.30;60.10;;;;;;4987302;28;20252;-72
2023/12/12 01:12:36;;;;;;;2.45;2.00;;;19.30;60.10;;;;;;4977289;28;20677;-72
2023/12/12 01:15:03;;;;;;;2.30;2.10;;;19.30;60.10;;;;;;4978927;28;20292;-72
2023/12/12 01:17:30;;;;;;;2.85;2.00;;;19.30;60.10;;;;;;4987643;28;20189;-72
2023/12/12 01:19:56;;;;;;;2.10;1.90;;;19.30;60.10;;;;;;4987849;28;20232;-72
2023/12/12 01:22:22;;;;;;;2.40;2.03;;;19.30;60.10;;;;;;4979797;28;20220;-72
2023/12/12 01:24:48;;;;;;;2.45;1.95;;;19.30;60.10;;;;;;4997332;28;20653;-73
2023/12/12 01:27:14;;;;;;;2.70;1.83;;;19.30;60.10;;;;;;4985362;28;20273;-72
2023/12/12 01:29:40;;;;;;;3.05;2.03;;;19.30;60.10;;;;;;5003847;28;20216;-72
2023/12/12 01:32:06;;;;;;;2.03;1.83;;;19.30;60.10;;;;;;4980502;28;20224;-72
2023/12/12 01:34:31;;;;;;;2.15;1.95;;;19.30;60.10;;;;;;4999397;28;20184;-72
2023/12/12 01:36:57;;;;;;;3.10;2.08;;;19.30;60.10;;;;;;4987846;28;20182;-72
2023/12/12 01:39:23;;;;;;;2.83;2.08;;;19.30;60.10;;;;;;4986925;28;20192;-71
2023/12/12 01:41:50;;;;;;;2.90;2.28;;;19.30;60.10;;;;;;4966677;28;20220;-72
2023/12/12 01:44:16;;;;;;;2.58;1.90;;;19.30;60.00;;;;;;4983088;28;20213;-73
2023/12/12 01:46:48;;;;;;;2.20;2.00;;;19.30;60.10;;;;;;4984988;28;20181;-72
2023/12/12 01:49:18;;;;;;;2.60;1.98;;;19.30;60.00;;;;;;4968577;28;20193;-72
2023/12/12 01:51:46;;;;;;;2.95;1.92;;;19.30;60.10;;;;;;4997195;28;20209;-72
2023/12/12 01:54:15;;;;;;;2.00;1.70;;;19.30;60.10;;;;;;4964460;28;20197;-72
2023/12/12 01:56:45;;;;;;;2.00;1.80;;;19.30;60.10;;;;;;4981132;28;20224;-72
2023/12/12 01:59:11;;;;;;;2.35;2.08;;;19.30;60.10;;;;;;4978666;28;20190;-71
2023/12/12 02:01:38;;;;;;;2.05;1.85;;;19.30;60.10;;;;;;4983375;28;20177;-71
2023/12/12 02:04:05;;;;;;;2.00;1.90;;;19.30;60.10;;;;;;4979147;28;20195;-72
2023/12/12 02:06:31;;;;;;;2.67;2.00;;;19.30;60.10;;;;;;4975905;28;20193;-72
2023/12/12 02:08:57;;;;;;;2.15;1.70;;;19.30;60.10;;;;;;4976262;28;20194;-72
2023/12/12 02:11:23;;;;;;;2.00;1.80;;;19.30;60.10;;;;;;4966625;28;20216;-72
2023/12/12 02:13:49;;;;;;;1.90;1.80;;;19.30;60.10;;;;;;4982892;28;20268;-74
2023/12/12 02:16:15;;;;;;;2.13;1.98;;;19.30;60.10;;;;;;4968537;28;20657;-72
2023/12/12 02:18:40;;;;;;;2.60;2.10;;;19.30;60.00;;;;;;4996816;28;20197;-73
2023/12/12 02:21:06;;;;;;;1.52;1.42;;;19.30;60.00;;;;;;4985886;28;20218;-73
2023/12/12 02:23:33;;;;;;;2.33;1.75;;;19.30;60.10;;;;;;4986027;28;20196;-72
2023/12/12 02:25:59;;;;;;;1.88;1.65;;;19.30;60.10;;;;;;4983768;28;20193;-73
2023/12/12 02:28:26;;;;;;;2.00;1.75;;;19.30;60.10;;;;;;4981775;28;20186;-72
2023/12/12 02:30:53;;;;;;;1.98;1.60;;;19.30;60.10;;;;;;4973354;28;20228;-72
2023/12/12 02:33:18;;;;;;;1.77;1.50;;;19.30;60.10;;;;;;4974275;28;20181;-73
2023/12/12 02:35:44;;;;;;;1.80;1.70;;;19.30;60.10;;;;;;4981849;28;20177;-73
2023/12/12 02:38:10;;;;;;;1.77;1.58;;;19.30;60.10;;;;;;4981644;28;20193;-71
2023/12/12 02:40:35;;;;;;;2.03;1.60;;;19.30;60.00;;;;;;4977332;28;20271;-73
2023/12/12 02:43:01;;;;;;;2.40;1.45;;;19.30;60.00;;;;;;4961338;28;20194;-72
2023/12/12 02:45:27;;;;;;;1.50;1.40;;;19.30;60.00;;;;;;4954175;28;20197;-72
2023/12/12 02:47:53;;;;;;;1.80;1.67;;;19.30;60.00;;;;;;4978192;28;20190;-72
2023/12/12 02:50:19;;;;;;;1.50;1.40;;;19.30;60.00;;;;;;4972842;28;20237;-72
2023/12/12 02:52:45;;;;;;;1.75;1.30;;;19.30;60.00;;;;;;4979816;28;20181;-72
2023/12/12 02:55:11;;;;;;;1.73;1.30;;;19.30;60.00;;;;;;4975851;28;20209;-72
2023/12/12 02:57:37;;;;;;;1.90;1.42;;;19.20;59.90;;;;;;4993747;28;20193;-72
2023/12/12 03:00:04;;;;;;;1.30;1.20;;;19.30;60.00;;;;;;4981460;28;20305;-73
2023/12/12 03:02:30;;;;;;;1.50;1.40;;;19.30;60.00;;;;;;4982076;28;20209;-72
2023/12/12 03:04:57;;;;;;;1.60;1.50;;;19.20;59.80;;;;;;4961338;28;20189;-72
2023/12/12 03:07:23;;;;;;;1.85;1.40;;;19.30;60.00;;;;;;4980002;28;20186;-72
2023/12/12 03:09:49;;;;;;;1.60;1.50;;;19.20;59.80;;;;;;4979921;28;20719;-72
2023/12/12 03:12:15;;;;;;;1.90;1.27;;;19.30;59.80;;;;;;4962479;28;20189;-72
2023/12/12 03:14:41;;;;;;;1.58;1.48;;;19.20;59.80;;;;;;4979300;28;20184;-72
2023/12/12 03:17:07;;;;;;;2.30;2.10;;;19.20;59.80;;;;;;4983388;28;20190;-71
2023/12/12 03:19:33;;;;;;;3.08;2.08;;;19.20;59.80;;;;;;4982260;28;20233;-73
2023/12/12 03:21:59;;;;;;;2.00;1.80;;;19.30;59.90;;;;;;4981927;28;20193;-71
2023/12/12 03:24:24;;;;;;;1.80;1.70;;;19.20;59.80;;;;;;4961214;28;20194;-72
2023/12/12 03:26:50;;;;;;;1.60;1.50;;;19.20;59.80;;;;;;4973070;28;20201;-72
2023/12/12 03:29:16;;;;;;;1.67;1.58;;;19.20;59.80;;;;;;4981521;28;20193;-71
2023/12/12 03:31:42;;;;;;;2.00;1.80;;;19.20;59.80;;;;;;4985774;28;20229;-72
2023/12/12 03:34:08;;;;;;;1.90;1.80;;;19.20;59.80;;;;;;4957401;28;20191;-71
2023/12/12 03:36:41;;;;;;;1.70;1.60;;;19.30;59.90;;;;;;4968936;28;20293;-72
2023/12/12 03:39:07;;;;;;;1.90;1.70;;;19.30;59.80;;;;;;4973514;28;20276;-72
2023/12/12 03:41:33;;;;;;;1.83;1.40;;;19.20;59.70;;;;;;4960976;28;20203;-72
2023/12/12 03:43:59;;;;;;;1.88;1.70;;;19.20;59.70;;;;;;4972137;28;20218;-72
2023/12/12 03:46:24;;;;;;;1.45;1.35;;;19.30;59.80;;;;;;4974643;28;20200;-72
2023/12/12 03:48:50;;;;;;;1.50;1.40;;;19.20;59.70;;;;;;4981082;28;20195;-72
2023/12/12 03:51:16;;;;;;;1.55;1.45;;;19.30;59.80;;;;;;4984345;28;20739;-73
2023/12/12 03:53:42;;;;;;;1.83;1.73;;;19.20;59.80;;;;;;4996030;28;20192;-72
2023/12/12 03:56:08;;;;;;;1.50;1.40;;;19.20;59.70;;;;;;4988997;28;20189;-73
2023/12/12 03:58:34;;;;;;;1.40;1.30;;;19.30;59.80;;;;;;4988499;28;20212;-72
2023/12/12 04:01:00;;;;;;;1.60;1.50;;;19.30;59.80;;;;;;4972980;28;20214;-72
2023/12/12 04:03:27;;;;;;;1.75;1.40;;;19.20;59.80;;;;;;4958089;28;20180;-73
2023/12/12 04:05:52;;;;;;;1.40;1.30;;;19.20;59.70;;;;;;4976193;28;20645;-73
2023/12/12 04:08:18;;;;;;;1.80;1.63;;;19.20;59.80;;;;;;4966025;28;20198;-72
2023/12/12 04:10:44;;;;;;;1.70;1.60;;;19.30;59.80;;;;;;4980774;28;20216;-72
2023/12/12 04:13:09;;;;;;;1.40;1.30;;;19.20;59.80;;;;;;4972700;28;20616;-72
2023/12/12 04:15:35;;;;;;;1.40;1.30;;;19.20;59.80;;;;;;4979966;28;20200;-72
2023/12/12 04:18:01;;;;;;;1.45;1.08;;;19.20;59.70;;;;;;4988456;28;20200;-72
2023/12/12 04:20:27;;;;;;;1.52;1.20;;;19.20;59.80;;;;;;4978183;28;20232;-72
2023/12/12 04:22:53;;;;;;;1.20;1.10;;;19.20;59.80;;;;;;4997130;28;20194;-71
2023/12/12 04:25:22;;;;;;;1.15;1.10;;;19.20;59.70;;;;;;4973680;28;20189;-72
2023/12/12 04:27:49;;;;;;;1.40;1.30;;;19.30;59.80;;;;;;4992739;28;20227;-72
2023/12/12 04:30:14;;;;;;;1.85;1.52;;;19.20;59.80;;;;;;4964768;28;20666;-72
2023/12/12 04:32:40;;;;;;;1.50;1.40;;;19.20;59.70;;;;;;4976931;28;20185;-73
2023/12/12 04:35:10;;;;;;;1.35;1.25;;;19.20;59.70;;;;;;4956217;28;20195;-73
2023/12/12 04:37:36;;;;;;;1.50;1.40;;;19.20;59.70;;;;;;4988739;28;20241;-73
2023/12/12 04:40:02;;;;;;;1.30;1.20;;;19.20;59.70;;;;;;4972146;28;20210;-72
2023/12/12 04:42:28;;;;;;;1.73;1.25;;;19.30;59.80;;;;;;4988106;28;20272;-71
2023/12/12 04:44:54;;;;;;;1.20;1.10;;;19.30;59.80;;;;;;4975278;28;20217;-73
2023/12/12 04:47:20;;;;;;;1.77;1.65;;;19.20;60.10;;;;;;4978277;28;20196;-72
2023/12/12 04:49:46;;;;;;;1.42;1.33;;;19.20;59.70;;;;;;4997718;28;20209;-72
2023/12/12 04:52:12;;;;;;;1.40;1.30;;;19.30;59.80;;;;;;4956186;28;20266;-72
2023/12/12 04:54:37;;;;;;;1.42;1.33;;;19.20;59.70;;;;;;4997028;28;20191;-73
2023/12/12 04:57:03;;;;;;;1.30;1.20;;;19.30;59.80;;;;;;4958872;28;20185;-72
2023/12/12 04:59:29;;;;;;;1.20;1.10;;;19.20;59.70;;;;;;4971706;28;20194;-72
2023/12/12 05:01:55;;;;;;;1.65;1.30;;;19.20;59.80;;;;;;4995957;28;20201;-72
2023/12/12 05:04:20;;;;;;;1.15;1.15;;;19.20;59.70;;;;;;4982960;28;20626;-71
2023/12/12 05:06:47;;;;;;;1.30;1.20;;;19.20;59.80;;;;;;4973034;28;20192;-72
2023/12/12 05:09:13;;;;;;;1.35;1.25;;;19.20;59.80;;;;;;4975558;28;20630;-72
2023/12/12 05:11:38;;;;;;;1.40;1.30;;;19.30;59.80;;;;;;4978891;28;20224;-72
2023/12/12 05:14:06;;;;;;;2.42;1.38;;;19.20;59.80;;;;;;4981603;28;20193;-72
2023/12/12 05:16:32;;;;;;;1.40;1.30;;;19.20;59.80;;;;;;4976792;28;20185;-71
2023/12/12 05:18:58;;;;;;;1.42;1.33;;;19.20;59.80;;;;;;4971476;28;20240;-72
2023/12/12 05:21:26;;;;;;;1.30;1.20;;;19.20;59.80;;;;;;4987679;28;20206;-72
2023/12/12 05:23:52;;;;;;;1.45;1.33;;;19.20;59.70;;;;;;4978942;28;20192;-72
2023/12/12 05:26:18;;;;;;;1.40;1.30;;;19.20;59.70;;;;;;4974674;28;20189;-73
2023/12/12 05:28:44;;;;;;;1.40;1.30;;;19.20;59.80;;;;;;4974318;28;20192;-71
2023/12/12 05:31:10;;;;;;;1.30;1.20;;;19.20;59.80;;;;;;4956761;28;20287;-72
2023/12/12 05:33:36;;;;;;;1.42;1.33;;;19.20;59.70;;;;;;4990139;28;20190;-72
2023/12/12 05:36:02;;;;;;;1.40;1.30;;;19.20;59.70;;;;;;4971164;28;20170;-72
2023/12/12 05:38:27;;;;;;;2.58;1.40;;;19.20;59.70;;;;;;4975608;28;20194;-72
2023/12/12 05:40:53;;;;;;;1.00;1.00;;;19.30;59.90;;;;;;4977638;28;20268;-73
2023/12/12 05:43:20;;;;;;;1.50;1.40;;;19.30;59.80;;;;;;4992122;28;20190;-72
2023/12/12 05:45:46;;;;;;;1.38;1.27;;;19.30;59.80;;;;;;4995345;28;20640;-71
2023/12/12 05:48:12;;;;;;;1.30;1.20;;;19.30;59.90;;;;;;4982612;28;20196;-72
2023/12/12 05:50:37;;;;;;;1.08;1.02;;;19.30;59.90;;;;;;4987336;28;20656;-72
2023/12/12 05:53:03;;;;;;;1.30;1.20;;;19.30;59.90;;;;;;4975941;28;20652;-72
2023/12/12 05:55:29;;;;;;;1.42;1.33;;;19.30;60.00;;;;;;4955659;28;20194;-72
2023/12/12 05:57:55;;;;;;;1.30;1.20;;;19.30;60.00;;;;;;4971425;28;20283;-72
2023/12/12 06:00:21;;;;;;;1.27;1.17;;;19.30;60.00;;;;;;4954176;28;20260;-72
2023/12/12 06:02:47;;;;;;;1.20;1.10;;;19.30;60.10;;;;;;4973941;28;20213;-72
2023/12/12 06:05:13;;;;;;;1.20;1.10;;;19.20;60.00;;;;;;4975236;28;20185;-71
2023/12/12 06:07:38;;;;;;;1.50;1.40;;;19.20;60.00;;;;;;4979726;28;20183;-72
2023/12/12 06:10:06;;;;;;;2.22;1.30;;;19.20;59.90;;;;;;4980437;28;20221;-71
2023/12/12 06:12:32;;;;;;;1.40;1.30;;;19.20;60.00;;;;;;4999108;28;20200;-71
2023/12/12 06:14:58;;;;;;;1.35;1.27;;;19.20;60.00;;;;;;4988391;28;20185;-71
2023/12/12 06:17:23;;;;;;;1.00;1.00;;;19.30;60.10;;;;;;4963507;28;20237;-71
2023/12/12 06:19:50;;;;;;;1.35;1.25;;;19.30;60.10;;;;;;4982447;28;20488;-72
2023/12/12 06:22:15;;;;;;;1.10;1.00;;;19.30;60.10;;;;;;4976722;28;20277;-71
2023/12/12 06:24:41;;;;;;;1.30;1.20;;;19.30;60.10;;;;;;4984807;28;20275;-71
2023/12/12 06:27:07;;;;;;;1.38;1.27;;;19.20;60.00;;;;;;4957740;28;20190;-70
2023/12/12 06:29:33;;;;;;;1.30;1.20;;;19.30;60.00;;;;;;4976492;28;20224;-72
2023/12/12 06:31:58;;;;;;;1.30;1.20;;;19.30;60.10;;;;;;4954635;28;20202;-71
2023/12/12 06:34:24;;;;;;;1.10;1.10;;;19.30;60.10;;;;;;4988108;28;20205;-71
2023/12/12 06:36:51;;;;;;;1.00;1.00;;;19.30;60.10;;;;;;4978092;28;20187;-71
2023/12/12 06:39:16;;;;;;;1.30;1.20;;;19.30;60.10;;;;;;4976687;28;20326;-71
2023/12/12 06:41:42;;;;;;;1.38;1.27;;;19.30;60.10;;;;;;4981639;28;20643;-71
2023/12/12 06:44:08;;;;;;;1.13;1.10;;;19.30;60.10;;;;;;4976401;28;20189;-71
2023/12/12 06:46:36;;;;;;;1.40;1.30;;;19.30;60.10;;;;;;4962821;28;20243;-72
2023/12/12 06:49:05;;;;;;;1.40;1.20;;;19.30;60.00;;;;;;4967060;28;20220;-71
2023/12/12 06:51:31;;;;;;;1.58;1.48;;;19.30;60.00;;;;;;4977393;28;20316;-71
2023/12/12 06:53:58;;;;;;;1.30;1.20;;;19.30;60.10;;;;;;4995302;28;20272;-70
2023/12/12 06:56:25;;;;;;;1.38;1.23;;;19.30;60.10;;;;;;4983330;28;20185;-70
2023/12/12 06:58:51;;;;;;;0.90;0.90;;;19.30;60.10;;;;;;4984931;28;20276;-71
2023/12/12 07:01:17;;;;;;;1.05;1.00;;;19.30;60.10;;;;;;4968331;28;20299;-71
2023/12/12 07:03:43;;;;;;;1.20;1.10;;;19.20;60.00;;;;;;4994091;28;20185;-71
2023/12/12 07:06:09;;;;;;;0.80;0.80;;;19.30;60.10;;;;;;4996409;28;20186;-71
2023/12/12 07:08:35;;;;;;;1.08;0.98;;;19.30;60.00;;;;;;4984048;28;20189;-71
2023/12/12 07:11:01;;;;;;;0.80;0.80;;;19.30;60.10;;;;;;4972996;28;20229;-72
2023/12/12 07:13:27;;;;;;;0.90;0.90;;;19.30;60.10;;;;;;4992157;28;20637;-71
2023/12/12 07:15:53;;;;;;;0.80;0.80;;;19.30;60.10;;;;;;4979131;28;20201;-71
2023/12/12 07:18:19;;;;;;;1.00;1.00;;;19.30;60.10;;;;;;4977018;28;20293;-70
2023/12/12 07:20:45;;;;;;;0.93;0.93;;;19.30;60.10;;;;;;4983573;28;20215;-71
2023/12/12 07:23:11;;;;;;;1.20;1.10;;;19.30;60.10;;;;;;4975445;28;20276;-72
2023/12/12 07:25:38;;;;;;;2.30;1.20;;;19.30;60.10;;;;;;4978384;28;20288;-72
2023/12/12 07:28:05;;;;;;;0.82;0.70;;;19.30;60.10;;;;;;4996674;28;20205;-71
2023/12/12 07:30:32;;;;;;;0.98;0.80;;;19.30;60.20;;;;;;4991730;28;20229;-71
2023/12/12 07:32:58;;;;;;;0.80;0.70;;;19.30;60.20;;;;;;4973199;28;20247;-72
2023/12/12 07:35:24;;;;;;;1.20;1.10;;;19.30;60.20;;;;;;4983652;28;20197;-72
2023/12/12 07:37:50;;;;;;;1.17;1.08;;;19.30;60.20;;;;;;4983263;28;20268;-71
2023/12/12 07:40:17;;;;;;;0.80;0.80;;;19.30;60.30;;;;;;4990429;28;20238;-71
2023/12/12 07:42:43;;;;;;;0.90;0.90;;;19.30;60.20;;;;;;4978472;28;20189;-71
2023/12/12 07:45:09;;;;;;;1.02;1.00;;;19.30;60.30;;;;;;4977365;28;20186;-71
2023/12/12 07:47:35;;;;;;;0.80;0.80;;;19.30;60.20;;;;;;4963185;28;20190;-72
2023/12/12 07:50:05;;;;;;;0.85;0.85;;;19.30;60.30;;;;;;4975056;28;20225;-71
2023/12/12 07:52:34;;;;;;;0.80;0.80;;;19.30;60.30;;;;;;4977128;28;20819;-71
2023/12/12 07:55:00;;;;;;;0.82;0.82;;;19.30;60.30;;;;;;4969524;28;20190;-71
2023/12/12 07:57:25;;;;;;;0.85;0.85;;;19.30;60.40;;;;;;4976781;28;20199;-71
2023/12/12 07:59:51;;;;;;;1.00;1.00;;;19.30;60.40;;;;;;4974503;28;20209;-71
2023/12/12 08:02:17;;;;;;;0.82;0.82;;;19.30;60.40;;;;;;4977817;28;20190;-70
2023/12/12 08:04:43;;;;;;;0.95;0.85;;;19.30;60.40;;;;;;4966753;28;20189;-71
2023/12/12 08:07:08;;;;;;;0.80;0.80;;;19.30;60.40;;;;;;4964487;28;20197;-71
2023/12/12 08:09:35;;;;;;;0.90;0.90;;;19.30;60.50;;;;;;4988535;28;20205;-71
2023/12/12 08:12:00;;;;;;;0.90;0.90;;;19.30;60.50;;;;;;4981050;28;20213;-71
2023/12/12 08:14:26;;;;;;;1.05;0.75;;;19.30;60.50;;;;;;4989611;28;20201;-72
2023/12/12 08:16:53;;;;;;;1.00;1.00;;;19.30;60.50;;;;;;4983126;28;20190;-71
2023/12/12 08:19:20;;;;;;;0.70;0.70;;;19.30;60.50;;;;;;4975671;28;20193;-71
2023/12/12 08:21:46;;;;;;;1.02;0.95;;;19.30;60.50;;;;;;4972427;28;20621;-71
2023/12/12 08:24:12;;;;;;;1.30;0.90;;;19.30;60.50;;;;;;4956102;28;20687;-71
2023/12/12 08:26:43;;;;;;;0.90;0.90;;;19.30;60.50;;;;;;4961084;28;20197;-71
2023/12/12 08:29:10;;;;;;;0.80;0.80;;;19.30;60.50;;;;;;4974816;28;20205;-71
2023/12/12 08:31:39;;;;;;;1.00;0.90;;;19.30;60.60;;;;;;4976461;28;20221;-71
2023/12/12 08:34:05;;;;;;;0.70;0.70;;;19.30;60.60;;;;;;4989926;28;20301;-71
2023/12/12 08:36:31;;;;;;;0.93;0.88;;;19.30;60.50;;;;;;4960567;28;20186;-71
2023/12/12 08:39:01;;;;;;;0.80;0.73;;;19.30;60.60;;;;;;4973241;28;20204;-71
2023/12/12 08:41:28;;;;;;;1.38;0.90;;;19.30;60.60;;;;;;4982132;28;20217;-71
2023/12/12 08:43:55;;;;;;;1.00;1.00;;;19.30;60.60;;;;;;4974086;28;20190;-71
2023/12/12 08:46:26;;;;;;;1.00;1.00;;;19.30;60.70;;;;;;4989836;28;20193;-71
2023/12/12 08:48:57;;;;;;;1.40;1.30;;;19.30;60.60;;;;;;4985924;28;20184;-71
2023/12/12 08:51:26;;;;;;;1.10;1.10;;;19.30;60.60;;;;;;4992409;28;20213;-71
2023/12/12 08:53:52;;;;;;;1.10;1.10;;;19.30;60.70;;;;;;4990640;28;20239;-71
2023/12/12 08:56:19;;;;;;;1.40;1.30;;;19.30;60.60;;;;;;4956032;28;20189;-71
2023/12/12 08:58:49;;;;;;;1.30;1.20;;;19.30;60.70;;;;;;4955261;28;20196;-71
2023/12/12 09:01:16;;;;;;;1.40;1.30;;;19.30;60.70;;;;;;4981089;28;20213;-71
2023/12/12 09:03:42;;;;;;;1.25;1.15;;;19.30;60.70;;;;;;4975028;28;20244;-70
2023/12/12 09:06:08;;;;;;;1.63;1.45;;;19.30;60.60;;;;;;4973898;28;20201;-72
2023/12/12 09:08:35;;;;;;;1.05;0.95;;;19.30;60.60;;;;;;4972674;28;20346;-71
2023/12/12 09:11:02;;;;;;;1.38;1.13;;;19.30;60.60;;;;;;4989946;28;20209;-71
2023/12/12 09:13:28;;;;;;;1.30;1.20;;;19.30;60.60;;;;;;4974319;28;20198;-71
2023/12/12 09:15:55;;;;;;;1.33;1.20;;;19.30;60.70;;;;;;4974047;28;20190;-70
2023/12/12 09:18:20;;;;;;;1.05;1.00;;;19.30;60.60;;;;;;4955270;28;20197;-72
2023/12/12 09:20:47;;;;;;;1.20;1.10;;;19.30;60.70;;;;;;4989456;28;20289;-71
2023/12/12 09:23:13;;;;;;;1.13;1.02;;;19.30;60.70;;;;;;4969298;28;20252;-72
2023/12/12 09:25:39;;;;;;;0.95;0.95;;;19.30;60.60;;;;;;4971579;28;20198;-72
2023/12/12 09:28:05;;;;;;;1.10;1.00;;;19.30;60.70;;;;;;4955737;28;20276;-71
2023/12/12 09:30:31;;;;;;;0.98;0.98;;;19.30;60.70;;;;;;4955139;28;20233;-71
2023/12/12 09:32:57;;;;;;;0.80;0.80;;;19.30;60.70;;;;;;4972564;28;20248;-71
2023/12/12 09:35:24;;;;;;;1.15;1.08;;;19.40;60.80;;;;;;4972329;28;20268;-72
2023/12/12 09:37:50;;;;;;;0.90;0.90;;;19.30;60.70;;;;;;4964627;28;20189;-71
2023/12/12 09:40:16;;;;;;;1.00;0.90;;;19.30;60.80;;;;;;4971111;28;20210;-70
2023/12/12 09:42:45;;;;;;;1.20;1.02;;;19.30;60.80;;;;;;4974997;28;20267;-72
2023/12/12 09:45:13;;;;;;;0.90;0.90;;;19.30;60.80;;;;;;4991191;28;20197;-70
2023/12/12 09:47:42;;;;;;;1.10;1.10;;;19.30;60.90;;;;;;4975933;28;20190;-69
2023/12/12 09:50:10;;;;;;;1.08;1.00;;;19.30;60.90;;;;;;4976618;28;20264;-71
2023/12/12 09:52:37;;;;;;;1.42;1.10;;;19.30;60.90;;;;;;4977025;28;20641;-71
2023/12/12 09:55:06;;;;;;;0.98;0.90;;;19.30;60.90;;;;;;4976001;28;20182;-71
2023/12/12 09:57:33;;;;;;;0.90;0.90;;;19.30;60.80;;;;;;4989149;28;20204;-71
2023/12/12 09:59:59;;;;;;;0.98;0.88;;;19.30;60.80;;;;;;4968368;28;20201;-70
2023/12/12 10:02:37;;;;;;;1.20;0.90;;;19.30;60.90;;;;;;4959751;28;20197;-72
2023/12/12 10:05:04;;;;;;;0.70;0.70;;;19.30;60.90;;;;;;4976934;28;20203;-71
2023/12/12 10:07:31;;;;;;;0.88;0.88;;;19.30;60.90;;;;;;4975579;28;20200;-70
2023/12/12 10:09:58;;;;;;;1.23;1.00;;;19.30;60.90;;;;;;4979984;28;20234;-71
2023/12/12 10:12:24;;;;;;;0.90;0.90;;;19.30;60.90;;;;;;4955461;28;20225;-71
2023/12/12 10:14:51;;;;;;;0.90;0.90;;;19.30;60.80;;;;;;4990506;28;20197;-70
2023/12/12 10:17:17;;;;;;;1.55;1.20;;;19.30;60.90;;;;;;4984324;28;20194;-71
2023/12/12 10:19:43;;;;;;;1.50;1.30;;;19.30;60.90;;;;;;4982185;28;20284;-71
2023/12/12 10:22:09;;;;;;;1.30;1.20;;;19.30;60.90;;;;;;4958749;28;20237;-71
2023/12/12 10:24:36;;;;;;;1.33;1.00;;;19.30;60.90;;;;;;4976117;28;20190;-71
2023/12/12 10:27:06;;;;;;;1.02;0.98;;;19.30;60.90;;;;;;4974831;28;20236;-71
2023/12/12 10:29:32;;;;;;;1.30;0.90;;;19.30;60.90;;;;;;4979144;28;20320;-71
2023/12/12 10:32:02;;;;;;;1.27;1.17;;;19.30;61.00;;;;;;4963214;28;20213;-71
2023/12/12 10:34:28;;;;;;;1.10;1.00;;;19.30;60.90;;;;;;4983777;28;20190;-71
2023/12/12 10:36:57;;;;;;;1.08;0.95;;;19.30;61.00;;;;;;4997994;28;20192;-70
2023/12/12 10:39:28;;;;;;;1.45;1.20;;;19.30;60.90;;;;;;4958014;28;20272;-70
2023/12/12 10:41:56;;;;;;;0.80;0.80;;;19.30;61.00;;;;;;4984962;28;20185;-71
2023/12/12 10:44:32;;;;;;;0.95;0.95;;;19.30;60.90;;;;;;4986770;28;20198;-71
2023/12/12 10:47:03;;;;;;;0.90;0.90;;;19.40;61.00;;;;;;4985728;28;20702;-70
2023/12/12 10:49:32;;;;;;;0.75;0.70;;;19.30;60.90;;;;;;4994112;28;20200;-71
2023/12/12 10:52:05;;;;;;;1.05;0.93;;;19.40;61.00;;;;;;4984649;28;20260;-71
2023/12/12 10:54:36;;;;;;;0.75;0.75;;;19.30;61.00;;;;;;5001891;28;20244;-71
2023/12/12 10:57:03;;;;;;;0.88;0.88;;;19.30;61.00;;;;;;4994437;28;20212;-71
2023/12/12 10:59:31;;;;;;;0.95;0.90;;;19.30;61.00;;;;;;4992848;28;20181;-71
2023/12/12 11:01:57;;;;;;;0.93;0.93;;;19.40;61.10;;;;;;5001187;28;20250;-71
2023/12/12 11:04:24;;;;;;;0.85;0.85;;;19.30;61.00;;;;;;4985391;28;20199;-71
2023/12/12 11:06:51;;;;;;;1.05;0.95;;;19.40;61.10;;;;;;4991339;28;20228;-72
2023/12/12 11:09:20;;;;;;;0.70;0.70;;;19.40;61.10;;;;;;4986849;28;20574;-71
2023/12/12 11:11:49;;;;;;;0.93;0.82;;;19.30;61.90;;;;;;4983267;28;20208;-71
2023/12/12 11:14:19;;;;;;;1.13;1.02;;;19.40;61.10;;;;;;4979298;28;20239;-72
2023/12/12 11:16:48;;;;;;;0.98;0.88;;;19.40;61.10;;;;;;4973660;28;20179;-71
2023/12/12 11:19:18;;;;;;;0.65;0.65;;;19.40;61.10;;;;;;4973532;28;20186;-72
2023/12/12 11:21:49;;;;;;;0.93;0.70;;;19.40;61.10;;;;;;4980796;28;20212;-72
2023/12/12 11:24:20;;;;;;;0.80;0.80;;;19.40;61.10;;;;;;4973565;28;20609;-72
2023/12/12 11:26:49;;;;;;;0.90;0.88;;;19.40;61.10;;;;;;4989537;28;20193;-71
2023/12/12 11:29:17;;;;;;;0.73;0.73;;;19.40;61.10;;;;;;4979028;28;20317;-71
2023/12/12 11:32:03;;;;;;;0.73;0.73;;;19.40;62.00;;;;;;4982136;28;20252;-70
2023/12/12 11:34:41;;;;;;;1.95;0.98;;;19.40;61.20;;;;;;4980174;28;20188;-71
2023/12/12 11:37:08;;;;;;;0.90;0.90;;;19.40;61.20;;;;;;5007507;28;20193;-71
2023/12/12 11:39:52;;;;;;;0.90;0.90;;;19.40;61.20;;;;;;4983495;28;20219;-70
2023/12/12 11:42:24;;;;;;;0.77;0.77;;;19.40;61.20;;;;;;4972654;28;20280;-70
2023/12/12 11:44:55;;;;;;;0.82;0.82;;;19.40;61.20;;;;;;4989464;28;20280;-71
2023/12/12 11:47:28;;;;;;;1.90;1.00;;;19.40;61.20;;;;;;4986433;28;20193;-70
2023/12/12 11:50:25;;;;;;;0.73;0.73;;;19.40;61.20;;;;;;4965571;28;20222;-71
2023/12/12 11:52:51;;;;;;;0.80;0.80;;;19.40;61.20;;;;;;4962224;28;20208;-70
2023/12/12 11:55:28;;;;;;;1.10;1.00;;;19.40;61.20;;;;;;4985369;28;20186;-70
2023/12/12 11:57:59;;;;;;;1.23;1.02;;;19.40;61.20;;;;;;4981520;28;20328;-71
2023/12/12 12:00:25;;;;;;;1.10;0.70;;;19.40;61.30;;;;;;4958888;28;20305;-71
2023/12/12 12:02:51;;;;;;;0.93;0.80;;;19.40;61.30;;;;;;4962328;28;20200;-71
2023/12/12 12:05:17;;;;;;;0.90;0.90;;;19.40;61.30;;;;;;4984483;28;20199;-70
2023/12/12 12:07:43;;;;;;;0.82;0.82;;;19.40;61.30;;;;;;4974137;28;20186;-70
2023/12/12 12:10:08;;;;;;;0.70;0.70;;;19.40;61.30;;;;;;4982567;28;20252;-70
2023/12/12 12:12:34;;;;;;;0.60;0.60;;;19.40;61.30;;;;;;4991752;28;20217;-71
2023/12/12 12:15:06;;;;;;;0.70;0.70;;;19.40;61.30;;;;;;4973328;28;20185;-71
2023/12/12 12:17:36;;;;;;;0.80;0.80;;;19.40;61.30;;;;;;4976611;28;20193;-70
2023/12/12 12:20:03;;;;;;;0.90;0.90;;;19.40;61.30;;;;;;4964845;28;20210;-71
2023/12/12 12:22:30;;;;;;;0.70;0.70;;;19.40;61.30;;;;;;4979188;28;20193;-71
2023/12/12 12:24:56;;;;;;;0.73;0.70;;;19.40;61.30;;;;;;4979172;28;20189;-70
2023/12/12 12:27:22;;;;;;;0.70;0.70;;;19.40;61.30;;;;;;4991783;28;20220;-71
2023/12/12 12:30:03;;;;;;;0.70;0.70;;;19.40;61.30;;;;;;4979079;28;20725;-71
2023/12/12 12:32:29;;;;;;;1.40;0.77;;;19.40;61.30;;;;;;4972679;28;20214;-71
2023/12/12 12:35:11;;;;;;;0.80;0.80;;;19.40;61.30;;;;;;4979693;28;20723;-71
2023/12/12 12:37:38;;;;;;;0.68;0.68;;;19.40;61.40;;;;;;4968071;28;20182;-70
2023/12/12 12:40:10;;;;;;;1.08;0.80;;;19.40;61.40;;;;;;4975618;28;20221;-71
2023/12/12 12:42:38;;;;;;;1.13;0.75;;;19.40;61.40;;;;;;4983178;28;20195;-71
2023/12/12 12:45:08;;;;;;;0.80;0.80;;;19.40;61.40;;;;;;4957120;28;20181;-71
2023/12/12 12:47:34;;;;;;;0.80;0.80;;;19.40;61.40;;;;;;4988001;28;20174;-71